Time;durP1;ratioP1;P1;durP2;ratioP2;P2;SDS_P1;SDS_P2;PMS_P1;PMS_P2;Temp;Humidity;BMP_temperature;BMP_pressure;BME280_temperature;BME280_humidity;BME280_pressure;Samples;Min_cycle;Max_cycle;Signal;HPM_P1;HPM_P2
2023/10/02 00:02:06;;;;;;;21.83;10.33;;;;;;;17.25;72.72;101204.03;4975811;28;20221;-77
2023/10/02 00:04:35;;;;;;;18.60;10.33;;;;;;;17.23;72.86;101198.03;4978838;28;20225;-77
2023/10/02 00:07:13;;;;;;;24.30;11.07;;;;;;;17.24;72.34;101199.69;4975365;28;20841;-76
2023/10/02 00:09:49;;;;;;;21.43;10.80;;;;;;;17.16;72.73;101197.03;4975477;28;20606;-77
2023/10/02 00:12:19;;;;;;;22.20;10.47;;;;;;;17.01;73.77;101198.78;4979077;28;20644;-77
2023/10/02 00:14:48;;;;;;;21.23;10.17;;;;;;;17.01;73.85;101199.59;4978322;28;20268;-75
2023/10/02 00:17:18;;;;;;;22.63;11.27;;;;;;;17.04;73.67;101217.19;4974594;28;20234;-76
2023/10/02 00:19:49;;;;;;;22.50;10.67;;;;;;;17.08;73.10;101211.31;4978527;28;20641;-76
2023/10/02 00:22:38;;;;;;;18.07;9.57;;;;;;;17.12;72.96;101218.00;4975901;28;20206;-78
2023/10/02 00:25:09;;;;;;;18.13;9.57;;;;;;;17.13;72.87;101216.16;4977024;28;20286;-77
2023/10/02 00:27:38;;;;;;;22.60;11.03;;;;;;;17.11;72.93;101218.16;4975738;28;20642;-77
2023/10/02 00:30:08;;;;;;;19.47;9.80;;;;;;;17.10;72.56;101219.19;4979067;28;20222;-77
2023/10/02 00:32:40;;;;;;;21.00;10.87;;;;;;;17.10;72.51;101219.19;4976106;28;20231;-76
2023/10/02 00:35:11;;;;;;;22.43;11.07;;;;;;;17.08;72.51;101221.19;4978264;28;20305;-76
2023/10/02 00:37:47;;;;;;;22.50;10.93;;;;;;;17.05;72.24;101224.22;4974704;28;20294;-77
2023/10/02 00:40:21;;;;;;;23.90;11.13;;;;;;;17.03;72.47;101223.56;4979147;28;20349;-76
2023/10/02 00:42:53;;;;;;;24.53;12.07;;;;;;;17.02;72.25;101225.41;4976822;28;20226;-77
2023/10/02 00:45:21;;;;;;;22.03;11.03;;;;;;;17.00;71.89;101223.88;4975883;28;20199;-76
2023/10/02 00:47:49;;;;;;;21.03;11.00;;;;;;;16.96;72.11;101223.41;4977114;28;20675;-76
2023/10/02 00:50:20;;;;;;;25.87;10.50;;;;;;;16.96;72.55;101222.56;4973307;28;20597;-77
2023/10/02 00:52:51;;;;;;;20.97;9.87;;;;;;;16.95;72.53;101220.91;4974982;28;20290;-77
2023/10/02 00:55:21;;;;;;;22.93;11.40;;;;;;;16.89;72.71;101219.72;4980429;28;20223;-76
2023/10/02 00:57:51;;;;;;;21.50;10.73;;;;;;;16.85;72.65;101219.25;4975606;28;20230;-77
2023/10/02 01:00:20;;;;;;;19.13;10.33;;;;;;;16.84;73.06;101222.09;4975172;28;20290;-76
2023/10/02 01:02:51;;;;;;;21.60;10.50;;;;;;;16.83;72.71;101223.94;4978508;28;20238;-76
2023/10/02 01:05:30;;;;;;;22.33;10.93;;;;;;;16.83;72.36;101223.09;4977956;28;20213;-74
2023/10/02 01:07:59;;;;;;;25.67;11.67;;;;;;;16.83;72.40;101221.25;4980054;28;20221;-76
2023/10/02 01:10:29;;;;;;;26.30;12.43;;;;;;;16.81;72.70;101219.75;4979729;28;20213;-76
2023/10/02 01:13:05;;;;;;;21.33;10.77;;;;;;;16.82;72.48;101224.94;4980335;28;20567;-74
2023/10/02 01:15:33;;;;;;;20.17;10.80;;;;;;;16.76;73.12;101233.66;4980473;28;20645;-75
2023/10/02 01:18:22;;;;;;;24.20;11.13;;;;;;;16.73;72.88;101223.28;4980157;28;20664;-76
2023/10/02 01:20:54;;;;;;;23.17;10.93;;;;;;;16.77;72.64;101223.78;4979759;28;20280;-76
2023/10/02 01:23:25;;;;;;;22.80;11.20;;;;;;;16.76;72.39;101220.25;4978398;28;20541;-76
2023/10/02 01:25:57;;;;;;;21.97;11.13;;;;;;;16.67;73.21;101220.44;4980134;28;20637;-77
2023/10/02 01:28:29;;;;;;;23.80;12.10;;;;;;;16.61;73.62;101216.63;4981727;28;20214;-77
2023/10/02 01:30:59;;;;;;;22.80;11.57;;;;;;;16.62;73.14;101210.25;4982457;28;20609;-76
2023/10/02 01:33:27;;;;;;;22.40;11.40;;;;;;;16.63;73.75;101219.09;4980559;28;20309;-77
2023/10/02 01:35:56;;;;;;;22.07;11.37;;;;;;;16.65;73.72;101215.25;4978996;28;20301;-76
2023/10/02 01:38:29;;;;;;;22.07;11.43;;;;;;;16.61;73.73;101208.59;4979222;28;20614;-75
2023/10/02 01:41:04;;;;;;;21.07;10.53;;;;;;;16.60;73.74;101209.56;4977521;28;20709;-75
2023/10/02 01:43:36;;;;;;;19.93;10.13;;;;;;;16.58;74.01;101200.84;4977516;28;20222;-75
2023/10/02 01:46:05;;;;;;;24.80;10.87;;;;;;;16.56;73.98;101208.19;4980095;28;20791;-77
2023/10/02 01:51:25;;;;;;;23.60;12.20;;;;;;;16.55;73.87;101206.53;4978360;28;20264;-76
2023/10/02 01:53:56;;;;;;;21.20;11.07;;;;;;;16.57;73.55;101204.53;4978735;28;20198;-76
2023/10/02 01:56:27;;;;;;;26.83;11.73;;;;;;;16.54;73.70;101213.72;4963144;28;20352;-76
2023/10/02 01:59:08;;;;;;;25.63;11.20;;;;;;;16.52;73.46;101210.41;4980423;28;20204;-76
2023/10/02 02:01:46;;;;;;;28.43;13.10;;;;;;;16.52;73.53;101212.25;4982567;28;20202;-76
2023/10/02 02:04:27;;;;;;;22.53;12.10;;;;;;;16.53;73.39;101211.25;4981484;28;20214;-76
2023/10/02 02:06:56;;;;;;;22.60;11.53;;;;;;;16.53;73.58;101219.28;4977656;28;20719;-77
2023/10/02 02:09:25;;;;;;;24.53;12.57;;;;;;;16.60;72.85;101214.06;4989251;28;20314;-76
2023/10/02 02:12:10;;;;;;;23.03;11.73;;;;;;;16.58;73.06;101208.88;4986933;28;20229;-76
2023/10/02 02:14:49;;;;;;;20.47;10.53;;;;;;;16.54;73.70;101218.25;4989323;28;20218;-77
2023/10/02 02:17:19;;;;;;;24.53;11.63;;;;;;;16.52;73.47;101228.31;5000735;28;20202;-76
2023/10/02 02:19:50;;;;;;;23.00;11.83;;;;;;;16.48;73.65;101224.28;4985454;28;20250;-76
2023/10/02 02:22:23;;;;;;;24.07;12.20;;;;;;;16.47;73.20;101227.94;4997465;28;20195;-76
2023/10/02 02:24:52;;;;;;;23.73;12.03;;;;;;;16.50;73.14;101225.78;4998623;28;20674;-77
2023/10/02 02:27:21;;;;;;;24.47;12.27;;;;;;;16.47;73.49;101226.13;4980671;28;20563;-77
2023/10/02 02:29:54;;;;;;;25.13;12.47;;;;;;;16.49;73.33;101226.78;4977787;28;20535;-77
2023/10/02 02:32:36;;;;;;;25.70;12.47;;;;;;;16.48;72.98;101221.59;4979235;28;20225;-76
2023/10/02 02:35:06;;;;;;;26.40;12.87;;;;;;;16.46;72.73;101218.25;4976942;28;20222;-76
2023/10/02 02:37:34;;;;;;;24.63;12.60;;;;;;;16.45;72.84;101220.09;4978022;28;20214;-76
2023/10/02 02:42:46;;;;;;;30.00;14.17;;;;;;;16.42;73.29;101214.25;4976830;28;20409;-77
2023/10/02 02:45:24;;;;;;;26.97;13.00;;;;;;;16.39;73.06;101214.56;4981910;28;20315;-76
2023/10/02 02:48:04;;;;;;;23.87;12.90;;;;;;;16.40;73.23;101221.59;4978582;28;20293;-77
2023/10/02 02:50:34;;;;;;;26.00;12.43;;;;;;;16.36;73.57;101218.41;4978936;28;20206;-76
2023/10/02 02:56:18;;;;;;;27.90;12.93;;;;;;;16.37;73.37;101220.09;4980947;28;20866;-77
2023/10/02 02:58:49;;;;;;;23.57;11.97;;;;;;;16.33;73.52;101220.59;4979248;28;20633;-76
2023/10/02 03:01:22;;;;;;;29.73;13.40;;;;;;;16.31;73.65;101207.38;4981037;28;20362;-75
2023/10/02 03:03:51;;;;;;;27.97;13.93;;;;;;;16.31;73.57;101212.75;4981042;28;20561;-76
2023/10/02 03:17:42;;;;;;;30.77;12.90;;;;;;;16.25;72.95;101200.03;5000753;28;20210;-76
2023/10/02 03:20:22;;;;;;;23.07;11.93;;;;;;;16.23;73.33;101215.41;5004840;28;20207;-75
2023/10/02 03:22:54;;;;;;;26.70;12.60;;;;;;;16.19;73.73;101208.72;5006593;28;20198;-76
2023/10/02 03:25:28;;;;;;;28.93;12.57;;;;;;;16.19;73.74;101209.53;5000400;28;20214;-75
2023/10/02 03:27:57;;;;;;;26.90;12.83;;;;;;;16.16;73.94;101214.41;5005738;28;20697;-75
2023/10/02 03:30:38;;;;;;;24.60;12.53;;;;;;;16.17;73.78;101213.41;5004181;28;20210;-74
2023/10/02 03:33:17;;;;;;;27.40;12.63;;;;;;;16.23;72.97;101209.22;5005183;28;20194;-75
2023/10/02 03:38:32;;;;;;;27.90;12.43;;;;;;;16.07;73.78;101213.56;5001097;28;20199;-75
2023/10/02 03:41:02;;;;;;;26.93;12.97;;;;;;;16.12;73.43;101218.41;5003958;28;20183;-76
2023/10/02 03:43:35;;;;;;;25.43;12.13;;;;;;;16.09;73.51;101210.75;5003904;28;20298;-75
2023/10/02 03:46:06;;;;;;;29.90;13.87;;;;;;;16.06;73.86;101213.72;5000675;28;20198;-76
2023/10/02 03:48:36;;;;;;;28.73;13.47;;;;;;;16.04;73.52;101213.91;5000116;28;20232;-75
2023/10/02 03:51:05;;;;;;;28.63;13.03;;;;;;;16.07;73.53;101212.75;5001466;28;20182;-75
2023/10/02 03:53:34;;;;;;;23.33;12.43;;;;;;;16.03;73.94;101208.69;5006701;28;20201;-76
2023/10/02 03:58:44;;;;;;;27.47;13.03;;;;;;;15.97;73.63;101212.88;5004967;28;21001;-76
2023/10/02 04:01:17;;;;;;;27.53;12.70;;;;;;;15.95;73.73;101209.53;5005538;28;20187;-76
2023/10/02 04:04:09;;;;;;;32.67;14.23;;;;;;;15.94;73.83;101215.88;5003205;28;20199;-75
2023/10/02 04:06:37;;;;;;;28.90;13.10;;;;;;;15.96;73.85;101213.88;5004919;28;20199;-75
2023/10/02 04:09:12;;;;;;;25.63;12.60;;;;;;;15.93;73.88;101208.84;5008386;28;20206;-76
2023/10/02 04:11:42;;;;;;;26.27;12.83;;;;;;;15.87;74.11;101214.88;5006062;28;20225;-76
2023/10/02 04:14:18;;;;;;;28.27;13.30;;;;;;;15.85;74.60;101211.53;5003423;28;20258;-74
2023/10/02 04:16:48;;;;;;;27.33;13.03;;;;;;;15.83;74.75;101210.88;5005677;28;20308;-75
2023/10/02 04:19:23;;;;;;;25.37;12.20;;;;;;;15.88;74.36;101215.72;5004697;28;20222;-75
2023/10/02 04:21:52;;;;;;;25.00;11.80;;;;;;;15.84;74.71;101209.00;5004869;28;20206;-76
2023/10/02 04:24:23;;;;;;;24.27;12.83;;;;;;;15.77;74.98;101203.47;5003319;28;20190;-75
2023/10/02 04:26:54;;;;;;;24.37;11.63;;;;;;;15.64;75.76;101198.63;5000645;28;20187;-76
2023/10/02 04:29:28;;;;;;;25.53;12.53;;;;;;;15.58;75.84;101203.75;5007246;28;20211;-75
2023/10/02 04:32:12;;;;;;;25.43;12.77;;;;;;;15.56;76.33;101195.94;5003045;28;20194;-76
2023/10/02 04:34:50;;;;;;;28.83;12.67;;;;;;;15.47;76.66;101196.88;5006681;28;20217;-75
2023/10/02 04:37:20;;;;;;;24.73;12.03;;;;;;;15.37;76.85;101198.84;5006855;28;20213;-76
2023/10/02 04:40:13;;;;;;;28.40;12.43;;;;;;;15.25;77.22;101203.63;5004099;28;20257;-76
2023/10/02 04:43:14;;;;;;;27.90;13.33;;;;;;;15.13;77.61;101209.44;5007503;28;20258;-76
2023/10/02 04:45:44;;;;;;;24.40;12.17;;;;;;;15.14;77.74;101211.91;5011521;28;20229;-75
2023/10/02 04:48:11;;;;;;;25.50;12.37;;;;;;;15.14;77.66;101206.56;5008219;28;20226;-75
2023/10/02 04:50:46;;;;;;;27.57;12.93;;;;;;;15.14;77.29;101206.56;5007176;28;20204;-75
2023/10/02 04:53:22;;;;;;;28.73;12.37;;;;;;;15.11;77.44;101206.91;5008678;28;20264;-74
2023/10/02 04:56:07;;;;;;;27.10;11.93;;;;;;;15.12;77.72;101205.06;5007590;28;20241;-76
2023/10/02 04:58:39;;;;;;;21.23;11.40;;;;;;;15.18;77.75;101209.78;5008866;28;20205;-75
2023/10/02 05:01:28;;;;;;;23.00;11.57;;;;;;;15.21;77.68;101196.94;5007707;28;20195;-75
2023/10/02 05:03:58;;;;;;;26.30;11.87;;;;;;;15.30;76.89;101198.63;5008275;28;20182;-75
2023/10/02 05:06:52;;;;;;;27.20;12.03;;;;;;;15.30;76.60;101201.28;5006344;28;20242;-76
2023/10/02 05:09:27;;;;;;;25.20;10.70;;;;;;;15.35;76.19;101204.34;5012504;28;20198;-76
2023/10/02 05:12:03;;;;;;;24.23;10.53;;;;;;;15.40;76.19;101195.81;5014410;28;20428;-76
2023/10/02 05:14:34;;;;;;;22.30;9.77;;;;;;;15.39;75.75;101194.97;5009661;28;20268;-75
2023/10/02 05:17:19;;;;;;;23.87;11.53;;;;;;;15.31;75.95;101192.28;5008404;28;20218;-76
2023/10/02 05:20:01;;;;;;;25.30;11.57;;;;;;;15.26;76.16;101194.63;5010436;28;20195;-75
2023/10/02 05:22:32;;;;;;;26.83;11.43;;;;;;;15.17;76.64;101195.56;5008439;28;20186;-74
2023/10/02 05:24:59;;;;;;;23.40;10.97;;;;;;;15.19;76.34;101204.28;5006918;28;20222;-75
2023/10/02 05:27:29;;;;;;;26.27;12.07;;;;;;;15.24;76.53;101199.28;5007432;28;20187;-74
2023/10/02 05:30:01;;;;;;;23.07;10.47;;;;;;;15.27;76.48;101206.97;5008299;28;20202;-75
2023/10/02 05:32:31;;;;;;;22.37;11.20;;;;;;;15.35;75.91;101208.84;5009749;28;20210;-75
2023/10/02 05:35:04;;;;;;;22.23;10.80;;;;;;;15.38;75.50;101214.72;5006289;28;20183;-75
2023/10/02 05:37:39;;;;;;;27.30;11.47;;;;;;;15.39;75.53;101216.34;5007521;28;20221;-76
2023/10/02 05:40:37;;;;;;;28.37;11.87;;;;;;;15.43;75.40;101206.19;5003813;28;20221;-75
2023/10/02 05:43:17;;;;;;;24.00;11.70;;;;;;;15.43;75.86;101212.38;5003283;28;20227;-75
2023/10/02 05:45:50;;;;;;;22.63;11.07;;;;;;;15.44;76.11;101218.56;5006020;28;20344;-75
2023/10/02 05:48:27;;;;;;;22.03;10.60;;;;;;;15.46;75.60;101223.75;5009772;28;20191;-75
2023/10/02 05:50:57;;;;;;;25.70;11.43;;;;;;;15.43;76.06;101223.06;5004515;28;20199;-75
2023/10/02 05:53:29;;;;;;;24.03;12.13;;;;;;;15.42;76.07;101221.41;5009935;28;20203;-75
2023/10/02 05:56:12;;;;;;;28.50;12.37;;;;;;;15.41;76.56;101222.38;5006512;28;20191;-74
2023/10/02 05:58:42;;;;;;;23.77;11.67;;;;;;;15.43;77.29;101224.91;5009688;28;20358;-75
2023/10/02 06:01:23;;;;;;;22.23;11.50;;;;;;;15.46;77.50;101229.09;5008427;28;20207;-76
2023/10/02 06:03:57;;;;;;;24.20;11.87;;;;;;;15.51;76.97;101230.28;5005347;28;20194;-75
2023/10/02 07:46:01;;;;;;;25.20;12.20;;;;;;;16.51;80.03;101245.38;4647553;30;20205;-74
2023/10/02 11:27:44;;;;;;;20.80;12.88;;;;;;;28.41;41.38;101094.94;4794790;29;20249;-74
2023/10/02 11:31:00;;;;;;;19.50;12.27;;;;;;;27.93;42.07;101088.19;4810115;29;20642;-75
2023/10/02 11:41:50;;;;;;;19.02;11.07;;;;;;;27.29;43.46;101075.84;4856471;29;20245;-75
2023/10/02 12:00:08;;;;;;;24.90;12.35;;;;;;;25.64;47.80;101040.06;4755670;29;20303;-75
2023/10/02 12:18:32;;;;;;;23.95;12.05;;;;;;;24.86;50.29;101019.22;4757462;30;20656;-75
2023/10/02 12:21:34;;;;;;;23.08;12.32;;;;;;;24.80;50.06;101017.44;4765131;29;20279;-75
2023/10/02 12:57:33;;;;;;;24.98;12.65;;;;;;;24.40;51.27;100978.28;4785799;29;20322;-76
2023/10/02 13:00:31;;;;;;;22.83;12.95;;;;;;;24.48;50.76;100980.69;4873717;29;20286;-75
2023/10/02 13:07:23;;;;;;;27.48;11.68;;;;;;;24.46;51.36;100966.53;4922292;29;20207;-75
2023/10/02 13:10:14;;;;;;;24.08;11.55;;;;;;;24.36;51.77;100957.03;4948098;28;20208;-75
2023/10/02 13:13:48;;;;;;;;;;;;;;;;;;;;;
2023/10/02 13:16:42;;;;;;;23.13;12.15;;;;;;;24.31;52.04;100945.25;4878807;29;20224;-75
2023/10/02 13:22:54;;;;;;;23.85;11.85;;;;;;;24.27;51.97;100942.16;4912905;29;20643;-74
2023/10/02 13:29:36;;;;;;;27.08;14.10;;;;;;;24.36;51.21;100935.38;4828893;29;20686;-75
2023/10/02 13:36:39;;;;;;;25.83;12.70;;;;;;;24.50;50.67;100929.78;4793887;29;20204;-75
2023/10/02 13:42:49;;;;;;;23.40;12.40;;;;;;;24.43;50.73;100919.03;4984967;23;21439;-74
2023/10/02 13:51:47;;;;;;;26.05;12.52;;;;;;;24.48;50.58;100916.47;4997859;28;20202;-75
2023/10/02 13:54:23;;;;;;;24.17;12.98;;;;;;;24.54;50.35;100914.72;5001388;28;20224;-74
2023/10/02 13:57:04;;;;;;;;;;;;;;;;;;;;;
2023/10/02 14:03:55;;;;;;;27.50;11.95;;;;;;;24.49;50.29;100898.31;4942884;28;20565;-74
2023/10/02 14:17:41;;;;;;;26.83;12.90;;;;;;;24.47;50.39;100895.00;4884922;29;20237;-75
2023/10/02 14:20:42;;;;;;;25.75;12.75;;;;;;;24.57;50.15;100887.16;4910719;28;20214;-74
2023/10/02 14:27:38;;;;;;;23.30;12.27;;;;;;;24.47;50.47;100881.44;4894802;29;20215;-75
2023/10/02 14:30:38;;;;;;;26.65;12.93;;;;;;;24.41;49.97;100883.19;4880243;29;20222;-75
2023/10/02 14:37:35;;;;;;;26.02;12.75;;;;;;;24.40;49.93;100870.69;4891619;29;20263;-74
2023/10/02 14:40:44;;;;;;;26.70;12.43;;;;;;;24.43;49.83;100864.81;4889708;29;20216;-75
2023/10/02 14:48:07;;;;;;;22.85;12.40;;;;;;;24.62;49.01;100865.59;4860724;29;20297;-74
2023/10/02 14:55:25;;;;;;;28.08;13.18;;;;;;;24.53;49.45;100856.16;4853144;29;20309;-75
2023/10/02 15:01:39;;;;;;;24.23;13.25;;;;;;;24.67;48.68;100860.31;4857021;29;20213;-75
2023/10/02 15:05:01;;;;;;;27.30;13.52;;;;;;;24.63;48.71;100853.69;4876296;29;20662;-75
2023/10/02 15:11:40;;;;;;;25.90;13.88;;;;;;;24.52;48.30;100833.63;4854672;29;20206;-75
2023/10/02 15:15:22;;;;;;;26.65;14.13;;;;;;;24.46;48.54;100829.09;4878114;29;20598;-76
2023/10/02 16:13:53;;;;;;;28.85;14.52;;;;;;;23.58;50.51;100786.25;4778125;29;20313;-74
2023/10/02 16:28:12;;;;;;;;;;;;;;;;;;;;;
2023/10/02 16:30:47;;;;;;;29.63;13.95;;;;;;;23.26;53.89;100782.00;4810419;29;20300;-74
2023/10/02 16:34:05;;;;;;;;;;;;;;;;;;;;;
2023/10/02 16:45:00;;;;;;;25.70;13.20;;;;;;;23.13;55.30;100755.88;4826910;29;20243;-75
2023/10/02 16:54:27;;;;;;;28.75;15.93;;;;;;;22.93;56.09;100754.44;4845501;29;20282;-75
2023/10/02 16:57:32;;;;;;;34.78;15.95;;;;;;;22.85;56.19;100758.25;4845322;29;20712;-75
2023/10/02 17:00:13;;;;;;;31.95;16.55;;;;;;;22.78;56.72;100757.50;4851672;29;20697;-74
2023/10/02 17:06:44;;;;;;;26.35;14.82;;;;;;;22.63;57.86;100759.66;4844458;29;20271;-75
2023/10/02 17:09:31;;;;;;;31.23;16.20;;;;;;;22.56;58.12;100762.41;4873489;29;20692;-74
2023/10/02 17:12:17;;;;;;;35.88;15.00;;;;;;;22.49;58.60;100753.53;4905048;29;20294;-75
2023/10/02 17:26:47;;;;;;;26.15;12.60;;;;;;;22.13;60.66;100763.13;4874927;29;20259;-75
2023/10/02 17:33:58;;;;;;;33.42;17.58;;;;;;;21.96;61.84;100767.31;4840829;29;20302;-74
2023/10/02 18:19:36;;;;;;;34.90;16.47;;;;;;;21.26;63.01;100752.03;4823505;29;20235;-74
2023/10/02 18:26:39;;;;;;;33.13;16.33;;;;;;;21.22;63.39;100754.28;4906419;28;20207;-75
2023/10/02 18:38:02;;;;;;;33.30;15.23;;;;;;;21.09;63.40;100762.38;4966025;28;20230;-74
2023/10/02 18:41:24;;;;;;;;;;;;;;;;;;;;;
2023/10/02 18:45:06;;;;;;;26.00;15.43;;;;;;;20.91;64.33;100764.91;4887979;29;20577;-75
2023/10/02 18:55:42;;;;;;;31.97;15.20;;;;;;;20.65;64.84;100750.41;4973007;28;20620;-74
2023/10/02 19:08:44;;;;;;;;;;;;;;;;;;;;;
2023/10/02 19:11:45;;;;;;;27.67;14.03;;;;;;;20.56;65.26;100746.25;4857641;29;20664;-74
2023/10/02 19:14:41;;;;;;;29.30;15.40;;;;;;;20.53;65.54;100751.19;4847842;29;20368;-75
2023/10/02 19:17:37;;;;;;;29.00;14.50;;;;;;;20.53;65.40;100757.41;4886553;29;20288;-74
2023/10/02 19:20:41;;;;;;;26.23;14.07;;;;;;;20.53;65.19;100757.41;4894786;29;20244;-75
2023/10/02 19:24:10;;;;;;;28.60;14.67;;;;;;;20.55;65.01;100755.34;4893193;29;20255;-75
2023/10/02 19:38:22;;;;;;;26.77;13.53;;;;;;;20.20;65.53;100745.75;4765653;30;20225;-74
2023/10/02 19:41:39;;;;;;;35.33;14.87;;;;;;;20.20;65.68;100745.75;4765743;30;20214;-74
2023/10/02 19:45:15;;;;;;;30.63;15.30;;;;;;;20.23;65.39;100742.63;4767319;30;20241;-74
2023/10/02 21:26:42;;;;;;;33.57;15.50;;;;;;;19.06;71.45;100656.75;4611458;30;20278;-74
2023/10/02 21:33:11;;;;;;;32.27;15.53;;;;;;;18.95;71.17;100643.84;4838855;29;20255;-75
2023/10/02 21:36:13;;;;;;;29.60;15.07;;;;;;;19.01;71.46;100634.16;4893350;29;20785;-74
